U30 weather

Temple Bar Airport
Temple Bar, Arizona, United States

Public forecast

Using degrees Fahrenheit for public forecast. Weather courtesy of forecast.io.

Closest aviation weather report (METAR) to Temple Bar Airport

Closest report is Nellis Air Force Base, 36.3 nm (67.2 km) WNW. Retrieved 2020/02/24 16:58 UTC (40 minutes ago):

KLSV 241658Z AUTO 03011KT 10SM CLR 13/11 A3023 RMK AO2 SLPNO T01330106

Closest aviation forecast (TAF) to Temple Bar Airport

Closest forecast is Nellis Air Force Base, 36.3 nm (67.2 km) WNW. Retrieved 2020/02/24 15:06 UTC (3 hours ago):

TAF KLSV 241500Z 2415/2521 01012KT 9999 SKC QNH3019INS TEMPO 2419/2501 02015G25KT 520009 BECMG 2500/2501 12009KT 9999 SKC QNH3015INS BECMG 2510/2511 33006KT 9999 SKC QNH3012INS TX21/2422Z TN08/2513Z